sensor_id;sensor_type;location;lat;lon;timestamp;pressure;altitude;pressure_sealevel;temperature;humidity
929;BME280;451;47.988;7.842;2023-10-08T00:07:51;99470.19;;;12.95;79.43
929;BME280;451;47.988;7.842;2023-10-08T00:16:59;99439.13;;;12.81;78.84
929;BME280;451;47.988;7.842;2023-10-08T00:26:02;99458.47;;;12.89;78.57
929;BME280;451;47.988;7.842;2023-10-08T00:35:10;99452.69;;;12.86;77.67
929;BME280;451;47.988;7.842;2023-10-08T00:44:15;99448.06;;;12.80;78.67
929;BME280;451;47.988;7.842;2023-10-08T00:53:26;99437.50;;;12.80;76.99
929;BME280;451;47.988;7.842;2023-10-08T01:02:31;99422.31;;;12.74;77.24
929;BME280;451;47.988;7.842;2023-10-08T01:12:06;99427.63;;;12.90;75.51
929;BME280;451;47.988;7.842;2023-10-08T01:21:11;99415.88;;;12.76;76.70
929;BME280;451;47.988;7.842;2023-10-08T01:30:21;99416.13;;;12.57;75.72
929;BME280;451;47.988;7.842;2023-10-08T01:39:26;99418.47;;;12.68;76.16
929;BME280;451;47.988;7.842;2023-10-08T01:48:30;99404.22;;;12.45;78.47
929;BME280;451;47.988;7.842;2023-10-08T01:57:39;99417.44;;;12.53;77.69
929;BME280;451;47.988;7.842;2023-10-08T02:06:46;99365.03;;;12.16;79.31
929;BME280;451;47.988;7.842;2023-10-08T02:15:50;99407.03;;;12.51;79.65
929;BME280;451;47.988;7.842;2023-10-08T02:24:55;99417.97;;;12.65;79.00
929;BME280;451;47.988;7.842;2023-10-08T02:34:03;99419.78;;;12.64;79.24
929;BME280;451;47.988;7.842;2023-10-08T02:43:11;99410.66;;;12.42;80.15
929;BME280;451;47.988;7.842;2023-10-08T02:52:16;99406.34;;;12.41;79.40
929;BME280;451;47.988;7.842;2023-10-08T03:01:21;99329.94;;;11.82;80.71
929;BME280;451;47.988;7.842;2023-10-08T03:10:24;99333.25;;;11.84;83.59
929;BME280;451;47.988;7.842;2023-10-08T03:19:36;99397.06;;;12.29;86.17
929;BME280;451;47.988;7.842;2023-10-08T03:28:40;99387.91;;;12.49;86.13
929;BME280;451;47.988;7.842;2023-10-08T03:37:45;99395.47;;;12.44;86.66
929;BME280;451;47.988;7.842;2023-10-08T03:46:52;99383.34;;;12.18;88.48
929;BME280;451;47.988;7.842;2023-10-08T03:56:00;99378.28;;;12.32;87.80
929;BME280;451;47.988;7.842;2023-10-08T04:05:07;99353.78;;;12.06;88.26
929;BME280;451;47.988;7.842;2023-10-08T04:14:24;99364.78;;;12.01;87.68
929;BME280;451;47.988;7.842;2023-10-08T04:23:28;99328.34;;;11.89;86.31
929;BME280;451;47.988;7.842;2023-10-08T04:32:33;99390.63;;;12.32;87.31
929;BME280;451;47.988;7.842;2023-10-08T04:41:36;99316.75;;;11.74;86.70
929;BME280;451;47.988;7.842;2023-10-08T04:50:46;99325.19;;;11.59;87.41
929;BME280;451;47.988;7.842;2023-10-08T04:59:59;99313.16;;;11.57;89.77
929;BME280;451;47.988;7.842;2023-10-08T05:09:12;99383.84;;;12.21;92.75
929;BME280;451;47.988;7.842;2023-10-08T05:18:24;99343.69;;;11.67;93.82
929;BME280;451;47.988;7.842;2023-10-08T05:27:52;99408.97;;;11.82;95.83
929;BME280;451;47.988;7.842;2023-10-08T05:37:11;99392.28;;;11.73;96.20
929;BME280;451;47.988;7.842;2023-10-08T05:46:51;99382.28;;;11.77;94.70
929;BME280;451;47.988;7.842;2023-10-08T05:56:09;99310.50;;;11.31;94.28
929;BME280;451;47.988;7.842;2023-10-08T06:05:31;99392.75;;;11.94;94.32
929;BME280;451;47.988;7.842;2023-10-08T06:14:45;99393.16;;;12.07;95.34
929;BME280;451;47.988;7.842;2023-10-08T06:24:08;99403.03;;;12.39;91.70
929;BME280;451;47.988;7.842;2023-10-08T06:33:12;99410.53;;;12.60;87.53
929;BME280;451;47.988;7.842;2023-10-08T06:42:16;99440.47;;;12.85;85.37
929;BME280;451;47.988;7.842;2023-10-08T06:51:19;99476.19;;;13.13;85.55
929;BME280;451;47.988;7.842;2023-10-08T07:00:25;99481.03;;;13.18;82.85
929;BME280;451;47.988;7.842;2023-10-08T07:09:40;99468.03;;;13.49;79.41
929;BME280;451;47.988;7.842;2023-10-08T07:18:47;99455.81;;;13.72;78.36
929;BME280;451;47.988;7.842;2023-10-08T07:27:54;99471.94;;;14.42;78.91
929;BME280;451;47.988;7.842;2023-10-08T07:36:59;99462.22;;;15.35;79.15
929;BME280;451;47.988;7.842;2023-10-08T07:46:03;99465.44;;;15.45;77.33
929;BME280;451;47.988;7.842;2023-10-08T07:55:09;99452.31;;;15.74;76.53
929;BME280;451;47.988;7.842;2023-10-08T08:04:12;99453.31;;;16.40;76.19
929;BME280;451;47.988;7.842;2023-10-08T08:13:25;99462.19;;;16.91;75.97
929;BME280;451;47.988;7.842;2023-10-08T08:22:30;99464.09;;;17.55;74.36
929;BME280;451;47.988;7.842;2023-10-08T08:31:35;99443.78;;;18.18;70.59
929;BME280;451;47.988;7.842;2023-10-08T08:40:39;99433.03;;;18.73;67.01
929;BME280;451;47.988;7.842;2023-10-08T08:49:44;99445.09;;;19.17;62.83
929;BME280;451;47.988;7.842;2023-10-08T08:58:49;99448.00;;;19.35;62.01
929;BME280;451;47.988;7.842;2023-10-08T09:07:58;99398.16;;;19.62;61.51
929;BME280;451;47.988;7.842;2023-10-08T09:17:05;99452.16;;;19.97;60.01
929;BME280;451;47.988;7.842;2023-10-08T09:26:10;99455.81;;;20.48;54.52
929;BME280;451;47.988;7.842;2023-10-08T09:35:17;99454.81;;;20.36;53.74
929;BME280;451;47.988;7.842;2023-10-08T09:44:23;99457.66;;;20.99;53.83
929;BME280;451;47.988;7.842;2023-10-08T09:53:31;99459.38;;;21.63;50.20
929;BME280;451;47.988;7.842;2023-10-08T10:02:43;99460.97;;;21.46;53.56
929;BME280;451;47.988;7.842;2023-10-08T10:11:48;99468.00;;;22.21;52.12
929;BME280;451;47.988;7.842;2023-10-08T10:20:57;99472.66;;;22.07;52.46
929;BME280;451;47.988;7.842;2023-10-08T10:30:03;99482.19;;;21.72;54.67
929;BME280;451;47.988;7.842;2023-10-08T10:39:12;99460.63;;;21.67;54.83
929;BME280;451;47.988;7.842;2023-10-08T10:48:18;99490.88;;;21.67;55.47
929;BME280;451;47.988;7.842;2023-10-08T10:57:30;99493.28;;;22.50;52.93
929;BME280;451;47.988;7.842;2023-10-08T11:06:38;99476.69;;;23.14;50.46
929;BME280;451;47.988;7.842;2023-10-08T11:15:44;99445.34;;;23.56;48.83
929;BME280;451;47.988;7.842;2023-10-08T11:24:51;99444.13;;;24.05;49.71
929;BME280;451;47.988;7.842;2023-10-08T11:34:02;99435.72;;;23.79;50.49
929;BME280;451;47.988;7.842;2023-10-08T11:43:10;99420.63;;;23.78;50.02
929;BME280;451;47.988;7.842;2023-10-08T11:52:19;99416.56;;;24.10;48.36
929;BME280;451;47.988;7.842;2023-10-08T12:01:23;99417.38;;;24.34;48.72
929;BME280;451;47.988;7.842;2023-10-08T12:10:28;99404.88;;;24.91;50.08
929;BME280;451;47.988;7.842;2023-10-08T12:19:36;99393.56;;;25.34;49.55
929;BME280;451;47.988;7.842;2023-10-08T12:28:46;99380.53;;;24.86;47.25
929;BME280;451;47.988;7.842;2023-10-08T12:37:50;99373.41;;;24.80;49.63
929;BME280;451;47.988;7.842;2023-10-08T12:46:54;99366.88;;;25.49;45.86
929;BME280;451;47.988;7.842;2023-10-08T12:56:01;99359.31;;;25.63;44.63
929;BME280;451;47.988;7.842;2023-10-08T13:05:12;99352.88;;;26.02;45.54
929;BME280;451;47.988;7.842;2023-10-08T13:14:18;99340.03;;;26.48;41.45
929;BME280;451;47.988;7.842;2023-10-08T13:23:26;99302.53;;;26.73;41.60
929;BME280;451;47.988;7.842;2023-10-08T13:32:29;99323.63;;;27.03;40.71
929;BME280;451;47.988;7.842;2023-10-08T13:41:34;99324.56;;;27.19;38.42
929;BME280;451;47.988;7.842;2023-10-08T13:50:37;99313.69;;;27.09;36.17
929;BME280;451;47.988;7.842;2023-10-08T13:59:42;99283.44;;;26.53;35.21
929;BME280;451;47.988;7.842;2023-10-08T14:08:46;99286.69;;;26.82;35.63
929;BME280;451;47.988;7.842;2023-10-08T14:17:54;99285.06;;;26.54;36.21
929;BME280;451;47.988;7.842;2023-10-08T14:27:00;99261.94;;;26.63;34.26
929;BME280;451;47.988;7.842;2023-10-08T14:36:12;99251.09;;;26.58;35.57
929;BME280;451;47.988;7.842;2023-10-08T14:45:35;99262.06;;;26.46;35.61
929;BME280;451;47.988;7.842;2023-10-08T14:54:40;99255.22;;;26.39;36.66
929;BME280;451;47.988;7.842;2023-10-08T15:03:44;99249.22;;;26.32;36.06
929;BME280;451;47.988;7.842;2023-10-08T15:12:49;99272.03;;;26.46;42.92
929;BME280;451;47.988;7.842;2023-10-08T15:21:53;99226.63;;;25.94;44.23
929;BME280;451;47.988;7.842;2023-10-08T15:30:58;99256.13;;;25.46;45.14
929;BME280;451;47.988;7.842;2023-10-08T15:40:01;99265.78;;;25.25;46.99
929;BME280;451;47.988;7.842;2023-10-08T15:49:09;99264.75;;;24.81;48.70
929;BME280;451;47.988;7.842;2023-10-08T15:58:13;99266.19;;;24.15;50.92
929;BME280;451;47.988;7.842;2023-10-08T16:07:18;99260.28;;;23.43;53.39
929;BME280;451;47.988;7.842;2023-10-08T16:16:21;99257.94;;;22.70;56.66
929;BME280;451;47.988;7.842;2023-10-08T16:25:26;99240.50;;;22.20;57.72
929;BME280;451;47.988;7.842;2023-10-08T16:34:29;99212.94;;;21.46;59.54
929;BME280;451;47.988;7.842;2023-10-08T16:43:34;99263.22;;;21.38;60.41
929;BME280;451;47.988;7.842;2023-10-08T16:52:37;99272.97;;;21.01;62.08
929;BME280;451;47.988;7.842;2023-10-08T17:01:42;99276.91;;;20.67;63.74
929;BME280;451;47.988;7.842;2023-10-08T17:10:45;99286.44;;;20.49;64.10
929;BME280;451;47.988;7.842;2023-10-08T17:19:51;99276.13;;;20.15;64.87
929;BME280;451;47.988;7.842;2023-10-08T17:28:54;99291.19;;;19.90;66.47
929;BME280;451;47.988;7.842;2023-10-08T17:37:58;99285.50;;;19.66;66.49
929;BME280;451;47.988;7.842;2023-10-08T17:47:02;99283.03;;;19.39;68.34
929;BME280;451;47.988;7.842;2023-10-08T17:56:07;99287.56;;;19.12;68.33
929;BME280;451;47.988;7.842;2023-10-08T18:05:10;99281.41;;;18.91;69.45
929;BME280;451;47.988;7.842;2023-10-08T18:14:18;99250.94;;;18.40;72.13
929;BME280;451;47.988;7.842;2023-10-08T18:23:22;99269.75;;;18.32;74.19
929;BME280;451;47.988;7.842;2023-10-08T18:32:27;99251.72;;;18.21;71.99
929;BME280;451;47.988;7.842;2023-10-08T18:41:32;99259.06;;;18.19;71.11
929;BME280;451;47.988;7.842;2023-10-08T18:50:37;99260.22;;;17.96;74.24
929;BME280;451;47.988;7.842;2023-10-08T18:59:40;99254.13;;;17.68;74.75
929;BME280;451;47.988;7.842;2023-10-08T19:08:45;99241.75;;;17.54;74.71
929;BME280;451;47.988;7.842;2023-10-08T19:17:49;99251.75;;;17.52;75.14
929;BME280;451;47.988;7.842;2023-10-08T19:26:53;99257.28;;;17.22;75.40
929;BME280;451;47.988;7.842;2023-10-08T19:35:58;99255.16;;;17.11;76.02
929;BME280;451;47.988;7.842;2023-10-08T19:45:07;99253.94;;;16.86;77.30
929;BME280;451;47.988;7.842;2023-10-08T19:54:16;99237.00;;;16.66;75.96
929;BME280;451;47.988;7.842;2023-10-08T20:03:20;99254.31;;;16.83;73.44
929;BME280;451;47.988;7.842;2023-10-08T20:12:24;99240.53;;;16.73;74.06
929;BME280;451;47.988;7.842;2023-10-08T20:21:30;99260.78;;;16.59;75.59
929;BME280;451;47.988;7.842;2023-10-08T20:30:35;99238.44;;;16.32;74.08
929;BME280;451;47.988;7.842;2023-10-08T20:39:43;99269.19;;;16.41;74.10
929;BME280;451;47.988;7.842;2023-10-08T20:48:47;99253.13;;;16.13;75.11
929;BME280;451;47.988;7.842;2023-10-08T20:57:55;99263.94;;;16.12;75.52
929;BME280;451;47.988;7.842;2023-10-08T21:06:58;99272.38;;;16.01;76.51
929;BME280;451;47.988;7.842;2023-10-08T21:16:02;99263.13;;;15.97;76.08
929;BME280;451;47.988;7.842;2023-10-08T21:25:08;99246.63;;;15.80;75.73
929;BME280;451;47.988;7.842;2023-10-08T21:34:13;99197.44;;;15.48;74.43
929;BME280;451;47.988;7.842;2023-10-08T21:43:16;99196.41;;;15.34;75.91
929;BME280;451;47.988;7.842;2023-10-08T21:52:21;99237.00;;;15.64;76.48
929;BME280;451;47.988;7.842;2023-10-08T22:01:25;99233.09;;;15.60;76.72
929;BME280;451;47.988;7.842;2023-10-08T22:10:30;99218.63;;;15.48;76.69
929;BME280;451;47.988;7.842;2023-10-08T22:19:35;99214.28;;;15.55;76.11
929;BME280;451;47.988;7.842;2023-10-08T22:28:45;99203.03;;;15.53;77.01
929;BME280;451;47.988;7.842;2023-10-08T22:37:53;99194.13;;;15.31;76.33
929;BME280;451;47.988;7.842;2023-10-08T22:47:04;99193.03;;;15.26;77.10
929;BME280;451;47.988;7.842;2023-10-08T22:56:12;99158.41;;;15.13;76.97
929;BME280;451;47.988;7.842;2023-10-08T23:05:17;99167.09;;;15.36;75.99
929;BME280;451;47.988;7.842;2023-10-08T23:14:23;99168.72;;;15.37;75.86
929;BME280;451;47.988;7.842;2023-10-08T23:23:28;99157.97;;;15.24;78.02
929;BME280;451;47.988;7.842;2023-10-08T23:32:33;99159.78;;;15.23;77.59
929;BME280;451;47.988;7.842;2023-10-08T23:41:39;99152.28;;;15.27;76.30
929;BME280;451;47.988;7.842;2023-10-08T23:50:49;99144.41;;;15.19;77.09
929;BME280;451;47.988;7.842;2023-10-08T23:59:56;99149.81;;;14.96;78.04
